Espaço - Ciências - Fenômenos Naturais
Meteógrafos Informações Meteorológicas em tempo real

Aeroporto de Congonhas

Histórico do Tempo
Temperatura atual: 22 graus 71 F    Umidade relativa: 78 %
Velocidade do vento: 09 nós 16 Km/h    Direção: 170 graus S
Ajuste do altímetro ..: 1016 HPA
Visibilidade: Ótima    Tempo presente: Poucas nuvens esparsas

Observação
Poucas nuvens a 2200 Pés., Nuvens esparsas a 6700 Pés.

Data Hora BRTTempo°CUmidadePressãoVentoVisib.
24/03 - 18:55   Poucas nuvens esparsas 22° 78% 1016 Sul/16 km/h OK
24/03 - 17:55   Poucas nuvens esparsas 22° 78% 1016 Sul/16 km/h OK
24/03 - 16:55   Não Disponível 24° 73% 1016 Sudeste/18 km/h OK
24/03 - 15:55   Parcialmente Nublado 27° 47% 1016 /7 km/h OK
24/03 - 14:55   Parcialmente Nublado 27° 47% 1016 /7 km/h OK
24/03 - 13:55   Céu Limpo 27° 47% 1016 Sudoeste/9 km/h CAVO
24/03 - 12:55   Parcialmente Nublado 27° 44% 1017 Norte-noroeste/10 km/h 9999
24/03 - 11:55   Poucas nuvens esparsas 27° 47% 1018 Sul-sudoeste/7 km/h 9999
24/03 - 10:55   Não Disponível 25° 57% 1019 Norte-nordeste/5 km/h OK
24/03 - 09:55   Céu Limpo 23° 64% 1019 Este-nordeste/5 km/h OK
24/03 - 08:55   Céu Limpo 20° 77% 1019 Nordeste/9 km/h OK
24/03 - 07:55   Parcialmente Nublado 19° 77% 1019 Este-nordeste/9 km/h 9999
24/03 - 06:55   Muitas Nuvens 18° 82% 1018 Este-nordeste/7 km/h 9999
24/03 - 05:55   Parcialmente Nublado 19° 77% 1017 Este-nordeste/7 km/h 9999
24/03 - 04:55   Parcialmente Nublado 19° 77% 1017 Este-nordeste/7 km/h 9999
24/03 - 03:55   Não Disponível 19° 82% 1018 Leste/5 km/h 9999
24/03 - 02:55   Poucas nuvens esparsas 19° 82% 1018 Leste/7 km/h 9999
24/03 - 01:55   Poucas nuvens esparsas 19° 82% 1018 Leste/5 km/h 9999
24/03 - 00:55   Parcialmente Nublado 20° 77% 1019 Este-sudeste/9 km/h 9999
23/03 - 23:55   Parcialmente Nublado 20° 77% 1019 Sudeste/9 km/h 9999
23/03 - 22:55   Céu Encoberto 20° 82% 1020 Sudeste/10 km/h OK
23/03 - 21:55   Céu Encoberto 19° 88% 1020 Sul-sudeste/16 km/h OK
23/03 - 20:55   Céu Encoberto 20° 82% 1019 Sul-sudeste/16 km/h OK
23/03 - 19:55   Parcialmente Nublado 20° 82% 1019 Sul/18 km/h OK


Apolo11.com - Todos os direitos reservados - 2000 - 2017
Política de Privacidade   |     Termo de Uso e Licenciamento   |  -   Entre em Contato

"As vezes eu penso que o preço da liberdade não é a eterna vigilância, mas a eterna sujeira" - George Orwell